1895 Hurricane NOT_NAMED (1895285N12315)


IBTrACS version v04r00. Visit IBTrACS website for data access.
Please direct all questions to the IBTrACS Q and A forum

Storm track - Intensity - Wind Radii - Intensity Data - Source Data - All data

Summary Information

Storm ID 1895285N12315
Start Oct 12 00Z
Landfall Oct 21 18Z
Max Intensity 90 kt (Oct 17 18Z), 991 mb (Oct 22 00Z)
End Oct 28 18Z
ATCF IDs ,AL051895
Track status Best track data.

Storm track plot

Map of storm track

Intensity plots

Map of storm track

Radial wind information

No radial wind information for this storm


Position and Intensity Table

BASIN ISO_TIME_________ NATURE LAT LON WMO WIND USA WIND MLC WIND MLC PRES
degrees north degrees east kts kts kts mb
NA 1895-10-12 00:00:00 TS 12.00 -44.80 35 35
NA 03:00:00 TS 12.00 -45.12 35
NA 06:00:00 TS 12.00 -45.50 35 35
NA 09:00:00 TS 12.00 -45.98 37
NA 12:00:00 TS 12.00 -46.50 40 40
NA 15:00:00 TS 12.00 -47.00 40
NA 18:00:00 TS 12.00 -47.50 40 40
NA 21:00:00 TS 12.00 -48.01 42
NA 1895-10-13 00:00:00 TS 12.00 -48.50 45 45
NA 03:00:00 TS 12.00 -48.95 45
NA 06:00:00 TS 12.00 -49.40 45 45
NA 09:00:00 TS 11.99 -49.89 47
NA 12:00:00 TS 12.00 -50.40 50 50
NA 15:00:00 TS 12.04 -50.90 50
NA 18:00:00 TS 12.10 -51.40 50 50
NA 21:00:00 TS 12.15 -51.89 50
NA 1895-10-14 00:00:00 TS 12.20 -52.40 50 50
NA 03:00:00 TS 12.25 -52.94 50
NA 06:00:00 TS 12.30 -53.50 50 50
NA 09:00:00 TS 12.35 -54.04 50
NA 12:00:00 TS 12.40 -54.60 50 50
NA 15:00:00 TS 12.46 -55.19 50
NA 18:00:00 TS 12.50 -55.80 50 50
NA 21:00:00 TS 12.50 -56.39 50
NA 1895-10-15 00:00:00 TS 12.50 -57.00 50 50
NA 03:00:00 TS 12.54 -57.64 50
NA 06:00:00 TS 12.60 -58.30 50 50
NA 09:00:00 TS 12.64 -58.94 50
NA 12:00:00 TS 12.70 -59.60 50 50
NA 15:00:00 TS 12.79 -60.29 50
NA 18:00:00 TS 12.90 -61.00 50 50
NA 21:00:00 TS 13.00 -61.69 52
NA 1895-10-16 00:00:00 TS 13.10 -62.40 55 55
NA 03:00:00 TS 13.20 -63.15 57
NA 06:00:00 TS 13.30 -63.90 60 60
NA 09:00:00 TS 13.41 -64.61 62
NA 12:00:00 TS 13.50 -65.30 65 65
NA 15:00:00 TS 13.55 -65.96 67
NA 18:00:00 TS 13.60 -66.60 70 70
NA 21:00:00 TS 13.70 -67.25 72
NA 1895-10-17 00:00:00 TS 13.80 -67.90 75 75
NA 03:00:00 TS 13.86 -68.56 77
NA 06:00:00 TS 13.90 -69.20 80 80
NA 09:00:00 TS 13.95 -69.82 82
NA 12:00:00 TS 14.00 -70.40 85 85
NA 15:00:00 TS 14.04 -70.93 87
NA 18:00:00 TS 14.10 -71.50 90 90
NA 21:00:00 TS 14.19 -72.22 90
NA 1895-10-18 00:00:00 TS 14.30 -73.00 90 90
NA 03:00:00 TS 14.43 -73.75 90
NA 06:00:00 TS 14.60 -74.50 90 90
NA 09:00:00 TS 14.80 -75.25 90
NA 12:00:00 TS 15.00 -76.00 90 90
NA 15:00:00 TS 15.15 -76.71 90
NA 18:00:00 TS 15.30 -77.50 90 90
NA 21:00:00 TS 15.49 -78.50 90
NA 1895-10-19 00:00:00 TS 15.70 -79.50 90 90
NA 03:00:00 TS 15.90 -80.36 90
NA 06:00:00 TS 16.10 -81.00 90 90
NA 09:00:00 TS 16.46 -81.47 90
NA 12:00:00 TS 16.80 -81.72 90 90 75
NA 15:00:00 TS 17.19 -81.94 90 75
NA 18:00:00 TS 17.60 -82.10 90 90 75
NA 21:00:00 TS 17.88 -82.20 90 77
NA 1895-10-20 00:00:00 TS 18.17 -82.27 90 90 80
NA 03:00:00 TS 18.47 -82.31 90 80
NA 06:00:00 TS 18.77 -82.33 90 90 80
NA 09:00:00 TS 19.06 -82.34 90 80
NA 12:00:00 TS 19.33 -82.33 90 90 80
NA 15:00:00 TS 19.57 -82.33 90 80
NA 18:00:00 TS 19.80 -82.33 90 90 80
NA 21:00:00 TS 20.03 -82.35 90 82
NA 1895-10-21 00:00:00 TS 20.27 -82.33 90 90 85
NA 03:00:00 TS 20.50 -82.25 90 85
NA 06:00:00 TS 20.73 -82.13 90 90 85
NA 09:00:00 TS 20.92 -82.04 90 85
NA 12:00:00 TS 21.20 -81.87 90 90 85
NA 15:00:00 TS 21.66 -81.54 87 85
NA 18:00:00 TS 22.23 -81.13 85 85 85
NA 21:00:00 TS 22.81 -80.74 85 85
NA 1895-10-22 00:00:00 TS 23.43 -80.33 85 85 85 991
NA 03:00:00 TS 24.09 -79.90 87 85
NA 06:00:00 TS 24.77 -79.47 90 90 85
NA 09:00:00 TS 25.48 -79.05 90 85
NA 12:00:00 TS 26.13 -78.60 90 90 85
NA 15:00:00 TS 26.62 -78.10 90 85
NA 18:00:00 TS 27.00 -77.57 90 90 85
NA 21:00:00 TS 27.36 -77.05 90 85
NA 1895-10-23 00:00:00 TS 27.70 -76.50 90 90 85
NA 03:00:00 TS 28.07 -75.88 90 85
NA 06:00:00 TS 28.43 -75.20 90 90 85
NA 09:00:00 TS 28.78 -74.49 90 85
NA 12:00:00 TS 29.13 -73.67 90 90 85
NA 15:00:00 TS 29.52 -72.67 90 85
NA 18:00:00 TS 29.90 -71.63 90 90 85
NA 21:00:00 TS 30.23 -70.68 90 85
NA 1895-10-24 00:00:00 TS 30.53 -69.80 90 90 85
NA 03:00:00 TS 30.83 -69.04 90 85
NA 06:00:00 TS 31.13 -68.27 90 90 85
NA 09:00:00 TS 31.45 -67.40 90 80
NA 12:00:00 TS 31.83 -66.33 90 90 75
NA 15:00:00 TS 32.31 -65.03 90 70
NA 18:00:00 TS 32.87 -63.47 90 90 65
NA 21:00:00 TS 33.49 -61.77 90 62
NA 1895-10-25 00:00:00 TS 34.07 -59.83 90 90 60
NA 03:00:00 TS 34.47 -57.65 90 60
NA 06:00:00 TS 34.73 -55.43 90 90 60
NA 09:00:00 TS 34.94 -53.35 87 57
NA 12:00:00 TS 35.00 -51.50 85 85 55
NA 15:00:00 TS 34.90 -49.99 80 52
NA 18:00:00 TS 34.73 -48.60 75 75 50
NA 21:00:00 TS 34.61 -47.07 70 47
NA 1895-10-26 00:00:00 TS 34.50 -45.50 65 65 45
NA 03:00:00 TS 34.41 -43.94 60 45
NA 06:00:00 ET 34.36 -42.42 55 55 45
NA 09:00:00 ET 34.34 -40.93 50 45
NA 12:00:00 ET 34.33 -39.60 45 45 45
NA 15:00:00 ET 34.29 -38.80 45
NA 18:00:00 ET 34.00 -37.70 45
NA 21:00:00 ET 33.71 -36.59 45
NA 1895-10-27 00:00:00 ET 33.40 -35.50 45
NA 03:00:00 ET 33.09 -34.41 45
NA 06:00:00 ET 32.80 -33.30 45
NA 09:00:00 ET 32.51 -32.21 45
NA 12:00:00 ET 32.30 -31.00 45
NA 15:00:00 ET 32.23 -29.55 45
NA 18:00:00 ET 32.20 -28.00 45
NA 21:00:00 ET 32.05 -26.50 45
NA 1895-10-28 00:00:00 ET 32.00 -25.00 45
NA 03:00:00 ET 32.16 -23.50 45
NA 06:00:00 ET 32.50 -22.00 45
NA 09:00:00 ET 33.05 -20.47 45
NA 12:00:00 ET 33.50 -19.00 45
NA 15:00:00 ET 33.53 -17.69 40
NA 18:00:00 ET 33.30 -16.50 35

Source Information

Agency Information
USA hurdat2-1851-2018-051019.txt:Line=8313:UNNAMED
TOKYO
CMA
HKO
NEWDELHI
REUNION
BOM
NADI
WELLINGTON
DS824
TD9636
TD9635
NEUMANN
MLC

All available IBTrACS Data

SEASON BASIN SUBBASIN ISO_TIME_________ NATURE LAT LON WMO WIND WMO AGENCY DIST2LAND LANDFALL IFLAG USA AGENCY USA ATCF_ID USA LAT USA LON USA STATUS USA WIND USA SSHS MLC LAT MLC LON MLC CLASS MLC WIND MLC PRES STORM SPEED STORM DIR
Year degrees north degrees east kts km km degrees north degrees east kts 1 degrees north degrees east kts mb kts degrees
1895 NA NA 1895-10-12 00:00:00 TS 12.00 -44.80 35 hurdat_atl 1120 1099 O_____________ hurdat_atl AL051895 12.00 -44.80 TS 35 0 6 270
1895 NA NA 03:00:00 TS 12.00 -45.12 1099 1073 P_____________ AL051895 12.00 -45.12 TS 35 0 7 270
1895 NA NA 06:00:00 TS 12.00 -45.50 35 hurdat_atl 1073 1047 O_____________ hurdat_atl AL051895 12.00 -45.50 TS 35 0 8 270
1895 NA NA 09:00:00 TS 12.00 -45.98 1041 1011 P_____________ AL051895 12.00 -45.98 TS 37 0 10 270
1895 NA NA 12:00:00 TS 12.00 -46.50 40 hurdat_atl 1011 979 O_____________ hurdat_atl AL051895 12.00 -46.50 TS 40 0 10 270
1895 NA NA 15:00:00 TS 12.00 -47.00 979 945 P_____________ AL051895 12.00 -47.00 TS 40 0 10 270
1895 NA NA 18:00:00 TS 12.00 -47.50 40 hurdat_atl 945 914 O_____________ hurdat_atl AL051895 12.00 -47.50 TS 40 0 10 270
1895 NA NA 21:00:00 TS 12.00 -48.01 914 885 P_____________ AL051895 12.00 -48.01 TS 42 0 10 270
1895 NA NA 1895-10-13 00:00:00 TS 12.00 -48.50 45 hurdat_atl 885 863 O_____________ hurdat_atl AL051895 12.00 -48.50 TS 45 0 9 270
1895 NA NA 03:00:00 TS 12.00 -48.95 863 838 P_____________ AL051895 12.00 -48.95 TS 45 0 9 270
1895 NA NA 06:00:00 TS 12.00 -49.40 45 hurdat_atl 838 815 O_____________ hurdat_atl AL051895 12.00 -49.40 TS 45 0 9 270
1895 NA NA 09:00:00 TS 11.99 -49.89 815 795 P_____________ AL051895 11.99 -49.89 TS 47 0 10 270
1895 NA NA 12:00:00 TS 12.00 -50.40 50 hurdat_atl 795 773 O_____________ hurdat_atl AL051895 12.00 -50.40 TS 50 0 10 273
1895 NA NA 15:00:00 TS 12.04 -50.90 773 759 P_____________ AL051895 12.04 -50.90 TS 50 0 10 276
1895 NA NA 18:00:00 TS 12.10 -51.40 50 hurdat_atl 759 739 O_____________ hurdat_atl AL051895 12.10 -51.40 TS 50 0 10 276
1895 NA NA 21:00:00 TS 12.15 -51.89 739 732 P_____________ AL051895 12.15 -51.89 TS 50 0 10 276
1895 NA NA 1895-10-14 00:00:00 TS 12.20 -52.40 50 hurdat_atl 732 720 O_____________ hurdat_atl AL051895 12.20 -52.40 TS 50 0 10 276
1895 NA NA 03:00:00 TS 12.25 -52.94 720 720 P_____________ AL051895 12.25 -52.94 TS 50 0 11 275
1895 NA NA 06:00:00 TS 12.30 -53.50 50 hurdat_atl 721 717 O_____________ hurdat_atl AL051895 12.30 -53.50 TS 50 0 11 275
1895 NA NA 09:00:00 TS 12.35 -54.04 717 689 P_____________ AL051895 12.35 -54.04 TS 50 0 11 275
1895 NA NA 12:00:00 TS 12.40 -54.60 50 hurdat_atl 689 652 O_____________ hurdat_atl AL051895 12.40 -54.60 TS 50 0 11 275
1895 NA NA 15:00:00 TS 12.46 -55.19 653 601 P_____________ AL051895 12.46 -55.19 TS 50 0 12 275
1895 NA NA 18:00:00 TS 12.50 -55.80 50 hurdat_atl 601 540 O_____________ hurdat_atl AL051895 12.50 -55.80 TS 50 0 12 272
1895 NA NA 21:00:00 TS 12.50 -56.39 540 480 P_____________ AL051895 12.50 -56.39 TS 50 0 12 270
1895 NA NA 1895-10-15 00:00:00 TS 12.50 -57.00 50 hurdat_atl 480 421 O_____________ hurdat_atl AL051895 12.50 -57.00 TS 50 0 12 272
1895 NA NA 03:00:00 TS 12.54 -57.64 421 363 P_____________ AL051895 12.54 -57.64 TS 50 0 13 275
1895 NA NA 06:00:00 TS 12.60 -58.30 50 hurdat_atl 363 312 O_____________ hurdat_atl AL051895 12.60 -58.30 TS 50 0 13 275
1895 NA NA 09:00:00 TS 12.64 -58.94 312 270 P_____________ AL051895 12.64 -58.94 TS 50 0 13 275
1895 NA CS 12:00:00 TS 12.70 -59.60 50 hurdat_atl 270 247 O_____________ hurdat_atl AL051895 12.70 -59.60 TS 50 0 13 277
1895 NA CS 15:00:00 TS 12.79 -60.29 247 239 P_____________ AL051895 12.79 -60.29 TS 50 0 14 278
1895 NA CS 18:00:00 TS 12.90 -61.00 50 hurdat_atl 246 246 O_____________ hurdat_atl AL051895 12.90 -61.00 TS 50 0 14 279
1895 NA CS 21:00:00 TS 13.00 -61.69 257 257 P_____________ AL051895 13.00 -61.69 TS 52 0 14 278
1895 NA CS 1895-10-16 00:00:00 TS 13.10 -62.40 55 hurdat_atl 268 268 O_____________ hurdat_atl AL051895 13.10 -62.40 TS 55 0 14 278
1895 NA CS 03:00:00 TS 13.20 -63.15 280 280 P_____________ AL051895 13.20 -63.15 TS 57 0 15 278
1895 NA CS 06:00:00 TS 13.30 -63.90 60 hurdat_atl 303 302 O_____________ hurdat_atl AL051895 13.30 -63.90 TS 60 0 14 278
1895 NA CS 09:00:00 TS 13.41 -64.61 316 316 P_____________ AL051895 13.41 -64.61 TS 62 0 14 278
1895 NA CS 12:00:00 TS 13.50 -65.30 65 hurdat_atl 333 324 O_____________ hurdat_atl AL051895 13.50 -65.30 HU 65 1 13 276
1895 NA CS 15:00:00 TS 13.55 -65.96 324 324 P_____________ AL051895 13.55 -65.96 HU 67 1 13 275
1895 NA CS 18:00:00 TS 13.60 -66.60 70 hurdat_atl 332 308 O_____________ hurdat_atl AL051895 13.60 -66.60 HU 70 1 13 277
1895 NA CS 21:00:00 TS 13.70 -67.25 308 285 P_____________ AL051895 13.70 -67.25 HU 72 1 13 279
1895 NA CS 1895-10-17 00:00:00 TS 13.80 -67.90 75 hurdat_atl 285 250 O_____________ hurdat_atl AL051895 13.80 -67.90 HU 75 1 13 277
1895 NA CS 03:00:00 TS 13.86 -68.56 245 215 P_____________ AL051895 13.86 -68.56 HU 77 1 13 275
1895 NA CS 06:00:00 TS 13.90 -69.20 80 hurdat_atl 215 201 O_____________ hurdat_atl AL051895 13.90 -69.20 HU 80 1 12 274
1895 NA CS 09:00:00 TS 13.95 -69.82 201 201 P_____________ AL051895 13.95 -69.82 HU 82 1 12 275
1895 NA CS 12:00:00 TS 14.00 -70.40 85 hurdat_atl 213 190 O_____________ hurdat_atl AL051895 14.00 -70.40 HU 85 2 11 275
1895 NA CS 15:00:00 TS 14.04 -70.93 190 187 P_____________ AL051895 14.04 -70.93 HU 87 2 11 275
1895 NA CS 18:00:00 TS 14.10 -71.50 90 hurdat_atl 190 190 O_____________ hurdat_atl AL051895 14.10 -71.50 HU 90 2 13 277
1895 NA CS 21:00:00 TS 14.19 -72.22 208 208 P_____________ AL051895 14.19 -72.22 HU 90 2 15 278
1895 NA CS 1895-10-18 00:00:00 TS 14.30 -73.00 90 hurdat_atl 248 248 O_____________ hurdat_atl AL051895 14.30 -73.00 HU 90 2 15 280
1895 NA CS 03:00:00 TS 14.43 -73.75 301 301 P_____________ AL051895 14.43 -73.75 HU 90 2 15 282
1895 NA CS 06:00:00 TS 14.60 -74.50 90 hurdat_atl 366 362 O_____________ hurdat_atl AL051895 14.60 -74.50 HU 90 2 15 284
1895 NA CS 09:00:00 TS 14.80 -75.25 362 325 P_____________ AL051895 14.80 -75.25 HU 90 2 15 285
1895 NA CS 12:00:00 TS 15.00 -76.00 90 hurdat_atl 325 295 O_____________ hurdat_atl AL051895 15.00 -76.00 HU 90 2 15 284
1895 NA CS 15:00:00 TS 15.15 -76.71 295 268 P_____________ AL051895 15.15 -76.71 HU 90 2 15 282
1895 NA CS 18:00:00 TS 15.30 -77.50 90 hurdat_atl 270 265 O_____________ hurdat_atl AL051895 15.30 -77.50 HU 90 2 18 281
1895 NA CS 21:00:00 TS 15.49 -78.50 281 281 P_____________ AL051895 15.49 -78.50 HU 90 2 20 282
1895 NA CS 1895-10-19 00:00:00 TS 15.70 -79.50 90 hurdat_atl 303 303 O_____________ hurdat_atl AL051895 15.70 -79.50 HU 90 2 18 283
1895 NA CS 03:00:00 TS 15.90 -80.36 306 256 P_____________ AL051895 15.90 -80.36 HU 90 2 15 286
1895 NA CS 06:00:00 TS 16.10 -81.00 90 hurdat_atl 256 232 O_____________ hurdat_atl AL051895 16.10 -81.00 HU 90 2 12 298
1895 NA CS 09:00:00 TS 16.46 -81.47 239 239 P_____________ AL051895 16.28 -81.34 HU 90 2 10 315
1895 NA CS 12:00:00 TS 16.80 -81.72 90 hurdat_atl 247 247 O____________O hurdat_atl AL051895 16.50 -81.50 HU 90 2 18.00 -82.60 HU 75 9 329
1895 NA CS 15:00:00 TS 17.19 -81.94 266 259 P____________P AL051895 16.78 -81.67 HU 90 2 18.31 -82.65 HU 75 9 336
1895 NA CS 18:00:00 TS 17.60 -82.10 90 hurdat_atl 292 292 O____________O hurdat_atl AL051895 17.10 -81.80 HU 90 2 18.60 -82.70 HU 75 7 341
1895 NA CS 21:00:00 TS 17.88 -82.20 317 317 P____________P AL051895 17.40 -81.92 HU 90 2 18.85 -82.74 HU 77 6 344
1895 NA CS 1895-10-20 00:00:00 TS 18.17 -82.27 90 hurdat_atl 342 339 O____________O hurdat_atl AL051895 17.70 -82.00 HU 90 2 19.10 -82.80 HU 80 6 349
1895 NA CS 03:00:00 TS 18.47 -82.31 328 295 P____________P AL051895 18.00 -82.02 HU 90 2 19.40 -82.91 HU 80 6 353
1895 NA CS 06:00:00 TS 18.77 -82.33 90 hurdat_atl 295 273 O____________O hurdat_atl AL051895 18.30 -82.00 HU 90 2 19.70 -83.00 HU 80 6 359
1895 NA CS 09:00:00 TS 19.06 -82.34 262 240 P____________P AL051895 18.60 -82.00 HU 90 2 19.98 -83.02 HU 80 6 0
1895 NA CS 12:00:00 TS 19.33 -82.33 90 hurdat_atl 240 207 O____________O hurdat_atl AL051895 18.90 -82.00 HU 90 2 20.20 -83.00 HU 80 5 1
1895 NA CS 15:00:00 TS 19.57 -82.33 207 186 P____________P AL051895 19.20 -82.00 HU 90 2 20.32 -83.00 HU 80 5 0
1895 NA CS 18:00:00 TS 19.80 -82.33 90 hurdat_atl 186 164 O____________O hurdat_atl AL051895 19.50 -82.00 HU 90 2 20.40 -83.00 HU 80 5 357
1895 NA CS 21:00:00 TS 20.03 -82.35 164 133 P____________P AL051895 19.80 -82.02 HU 90 2 20.50 -83.00 HU 82 5 0
1895 NA CS 1895-10-21 00:00:00 TS 20.27 -82.33 90 hurdat_atl 133 113 O____________O hurdat_atl AL051895 20.10 -82.00 HU 90 2 20.60 -83.00 HU 85 5 11
1895 NA CS 03:00:00 TS 20.50 -82.25 113 100 P____________P AL051895 20.40 -81.88 HU 90 2 20.70 -83.00 HU 85 5 22
1895 NA CS 06:00:00 TS 20.73 -82.13 90 hurdat_atl 106 88 O____________O hurdat_atl AL051895 20.70 -81.70 HU 90 2 20.80 -83.00 HU 85 5 25
1895 NA CS 09:00:00 TS 20.92 -82.04 93 76 P____________P AL051895 20.98 -81.52 HU 90 2 20.82 -83.07 HU 85 5 28
1895 NA CS 12:00:00 TS 21.20 -81.87 90 hurdat_atl 76 59 O____________O hurdat_atl AL051895 21.30 -81.30 HU 90 2 21.00 -83.00 HU 85 9 32
1895 NA CS 15:00:00 TS 21.66 -81.54 45 0 P____________P AL051895 21.70 -81.02 HU 87 2 21.58 -82.58 HU 85 12 33
1895 NA NA 18:00:00 TS 22.23 -81.13 85 hurdat_atl 0 0 O____________O hurdat_atl AL051895 22.20 -80.70 HU 85 2 22.30 -82.00 HU 85 14 33
1895 NA NA 21:00:00 TS 22.81 -80.74 0 0 P____________P AL051895 22.76 -80.36 HU 85 2 22.91 -81.50 HU 85 14 32
1895 NA NA 1895-10-22 00:00:00 TS 23.43 -80.33 85 hurdat_atl 49 49 O____________O hurdat_atl AL051895 23.40 -80.00 HU 85 2 23.50 -81.00 HU 85 991 15 31
1895 NA NA 03:00:00 TS 24.09 -79.90 122 97 P____________P AL051895 24.08 -79.61 HU 87 2 24.09 -80.50 HU 85 16 31
1895 NA NA 06:00:00 TS 24.77 -79.47 90 hurdat_atl 96 92 O____________O hurdat_atl AL051895 24.80 -79.20 HU 90 2 24.70 -80.00 HU 85 16 29
1895 NA NA 09:00:00 TS 25.48 -79.05 100 100 P____________P AL051895 25.54 -78.81 HU 90 2 25.38 -79.52 HU 85 16 30
1895 NA NA 12:00:00 TS 26.13 -78.60 90 hurdat_atl 122 122 O____________O hurdat_atl AL051895 26.20 -78.40 HU 90 2 26.00 -79.00 HU 85 14 37
1895 NA NA 15:00:00 TS 26.62 -78.10 167 167 P____________P AL051895 26.70 -77.96 HU 90 2 26.45 -78.36 HU 85 13 47
1895 NA NA 18:00:00 TS 27.00 -77.57 90 hurdat_atl 215 215 O____________O hurdat_atl AL051895 27.10 -77.50 HU 90 2 26.80 -77.70 HU 85 12 51
1895 NA NA 21:00:00 TS 27.36 -77.05 272 272 P____________P AL051895 27.46 -77.03 HU 90 2 27.15 -77.10 HU 85 12 54
1895 NA NA 1895-10-23 00:00:00 TS 27.70 -76.50 90 hurdat_atl 326 326 O____________O hurdat_atl AL051895 27.80 -76.50 HU 90 2 27.50 -76.50 HU 85 13 56
1895 NA NA 03:00:00 TS 28.07 -75.88 394 394 P____________P AL051895 28.15 -75.90 HU 90 2 27.90 -75.85 HU 85 14 57
1895 NA NA 06:00:00 TS 28.43 -75.20 90 hurdat_atl 461 461 O____________O hurdat_atl AL051895 28.50 -75.20 HU 90 2 28.30 -75.20 HU 85 14 60
1895 NA NA 09:00:00 TS 28.78 -74.49 539 539 P____________P AL051895 28.85 -74.39 HU 90 2 28.64 -74.69 HU 85 15 62
1895 NA NA 12:00:00 TS 29.13 -73.67 90 hurdat_atl 616 616 O____________O hurdat_atl AL051895 29.20 -73.50 HU 90 2 29.00 -74.00 HU 85 18 65
1895 NA NA 15:00:00 TS 29.52 -72.67 681 676 P____________P AL051895 29.56 -72.59 HU 90 2 29.44 -72.85 HU 85 19 67
1895 NA NA 18:00:00 TS 29.90 -71.63 90 hurdat_atl 705 703 O____________O hurdat_atl AL051895 29.90 -71.70 HU 90 2 29.90 -71.50 HU 85 19 68
1895 NA NA 21:00:00 TS 30.23 -70.68 739 738 P____________P AL051895 30.16 -70.91 HU 90 2 30.36 -70.21 HU 85 17 68
1895 NA NA 1895-10-24 00:00:00 TS 30.53 -69.80 90 hurdat_atl 780 780 O____________O hurdat_atl AL051895 30.40 -70.20 HU 90 2 30.80 -69.00 HU 85 15 67
1895 NA NA 03:00:00 TS 30.83 -69.04 819 812 P____________P AL051895 30.64 -69.58 HU 90 2 31.20 -67.96 HU 85 14 66
1895 NA NA 06:00:00 TS 31.13 -68.27 90 hurdat_atl 847 847 O____________O hurdat_atl AL051895 30.90 -68.90 HU 90 2 31.60 -67.00 HU 85 15 66
1895 NA NA 09:00:00 TS 31.45 -67.40 894 894 P____________P AL051895 31.15 -68.09 HU 90 2 32.06 -66.01 HU 80 18 67
1895 NA NA 12:00:00 TS 31.83 -66.33 90 hurdat_atl 957 952 O____________O hurdat_atl AL051895 31.50 -67.00 HU 90 2 32.50 -65.00 HU 75 22 67
1895 NA NA 15:00:00 TS 32.31 -65.03 1040 1040 P____________P AL051895 32.03 -65.58 HU 90 2 32.87 -63.92 HU 70 26 67
1895 NA NA 18:00:00 TS 32.87 -63.47 90 hurdat_atl 1134 1134 O____________O hurdat_atl AL051895 32.70 -63.80 HU 90 2 33.20 -62.80 HU 65 30 67
1895 NA NA 21:00:00 TS 33.49 -61.77 1153 1142 P____________P AL051895 33.49 -61.76 HU 90 2 33.50 -61.78 HU 62 33 68
1895 NA NA 1895-10-25 00:00:00 TS 34.07 -59.83 90 hurdat_atl 1148 1148 O____________O hurdat_atl AL051895 34.20 -59.50 HU 90 2 33.80 -60.50 TS 60 35 74
1895 NA NA 03:00:00 TS 34.47 -57.65 1195 1195 P____________P AL051895 34.66 -57.13 HU 90 2 34.10 -58.70 TS 60 37 80
1895 NA NA 06:00:00 TS 34.73 -55.43 90 hurdat_atl 1264 1260 O____________O hurdat_atl AL051895 34.90 -54.90 HU 90 2 34.40 -56.50 TS 60 36 82
1895 NA NA 09:00:00 TS 34.94 -53.35 1301 1290 P____________P AL051895 35.02 -53.07 HU 87 2 34.77 -53.92 TS 57 32 85
1895 NA NA 12:00:00 TS 35.00 -51.50 85 hurdat_atl 1298 1298 O____________O hurdat_atl AL051895 35.00 -51.50 HU 85 2 35.00 -51.50 TS 55 28 91
1895 NA NA 15:00:00 TS 34.90 -49.99 1328 1328 P____________P AL051895 34.88 -50.03 HU 80 1 34.94 -49.89 TS 52 24 96
1895 NA NA 18:00:00 TS 34.73 -48.60 75 hurdat_atl 1378 1378 O____________O hurdat_atl AL051895 34.70 -48.60 HU 75 1 34.80 -48.60 TS 50 24 97
1895 NA NA 21:00:00 TS 34.61 -47.07 1429 1429 P____________P AL051895 34.54 -47.03 HU 70 1 34.74 -47.14 TS 47 26 95
1895 NA NA 1895-10-26 00:00:00 TS 34.50 -45.50 65 hurdat_atl 1492 1492 O____________O hurdat_atl AL051895 34.40 -45.40 HU 65 1 34.70 -45.70 TS 45 26 94
1895 NA NA 03:00:00 TS 34.41 -43.94 1565 1565 P____________P AL051895 34.29 -43.76 HU 60 0 34.65 -44.30 TS 45 25 93
1895 NA NA 06:00:00 ET 34.36 -42.42 55 hurdat_atl 1631 1631 O____________O hurdat_atl AL051895 34.20 -42.10 EX 55 -4 34.60 -42.90 EX 45 25 92
1895 NA NA 09:00:00 ET 34.34 -40.93 1713 1713 P____________P AL051895 34.11 -40.45 EX 50 -4 34.58 -41.41 EX 45 23 91
1895 NA NA 12:00:00 ET 34.33 -39.60 45 hurdat_atl 1780 1780 O____________O hurdat_atl AL051895 34.00 -38.80 EX 45 -4 34.50 -40.00 EX 45 18 92
1895 NA NA 15:00:00 ET 34.29 -38.80 1824 1824 _____________P AL051895 EX -4 34.29 -38.80 EX 45 16 102
1895 NA NA 18:00:00 ET 34.00 -37.70 1912 1912 _____________O 34.00 -37.70 EX 45 19 108
1895 NA NA 21:00:00 ET 33.71 -36.59 1974 1876 _____________P 33.71 -36.59 EX 45 19 108
1895 NA NA 1895-10-27 00:00:00 ET 33.40 -35.50 1867 1769 _____________O 33.40 -35.50 EX 45 19 109
1895 NA NA 03:00:00 ET 33.09 -34.41 1760 1662 _____________P 33.09 -34.41 EX 45 19 108
1895 NA NA 06:00:00 ET 32.80 -33.30 1653 1554 _____________O 32.80 -33.30 EX 45 19 107
1895 NA NA 09:00:00 ET 32.51 -32.21 1545 1440 _____________P 32.51 -32.21 EX 45 20 104
1895 NA NA 12:00:00 ET 32.30 -31.00 1431 1301 _____________O 32.30 -31.00 EX 45 23 97
1895 NA NA 15:00:00 ET 32.23 -29.55 1301 1167 _____________P 32.23 -29.55 EX 45 25 92
1895 NA NA 18:00:00 ET 32.20 -28.00 1158 1031 _____________O 32.20 -28.00 EX 45 26 94
1895 NA NA 21:00:00 ET 32.05 -26.50 1022 897 _____________P 32.05 -26.50 EX 45 25 94
1895 NA NA 1895-10-28 00:00:00 ET 32.00 -25.00 888 777 _____________O 32.00 -25.00 EX 45 25 88
1895 NA NA 03:00:00 ET 32.16 -23.50 775 690 _____________P 32.16 -23.50 EX 45 26 79
1895 NA NA 06:00:00 ET 32.50 -22.00 683 637 _____________O 32.50 -22.00 EX 45 27 71
1895 NA NA 09:00:00 ET 33.05 -20.47 641 612 _____________P 33.05 -20.47 EX 45 27 68
1895 NA NA 12:00:00 ET 33.50 -19.00 610 573 _____________O 33.50 -19.00 EX 45 24 78
1895 NA NA 15:00:00 ET 33.53 -17.69 571 535 _____________P 33.53 -17.69 EX 40 21 95
1895 NA NA 18:00:00 ET 33.30 -16.50 535 _____________O 33.30 -16.50 EX 35 20 103